createdAt,value
2019-01-09T00:00:20.526Z,3.30
2019-01-09T00:02:47.900Z,3.30
2019-01-09T00:05:15.292Z,3.00
2019-01-09T00:07:43.088Z,3.00
2019-01-09T00:10:10.473Z,3.00
2019-01-09T00:12:37.850Z,3.00
2019-01-09T00:15:05.750Z,3.20
2019-01-09T00:17:33.163Z,3.20
2019-01-09T00:20:00.590Z,3.10
2019-01-09T00:22:28.021Z,3.10
2019-01-09T00:24:55.407Z,3.10
2019-01-09T00:27:22.834Z,3.00
2019-01-09T00:29:50.428Z,2.90
2019-01-09T00:32:17.847Z,3.00
2019-01-09T00:34:45.235Z,3.10
2019-01-09T00:37:12.914Z,3.20
2019-01-09T00:39:40.302Z,3.20
2019-01-09T00:42:07.689Z,3.20
2019-01-09T00:44:35.161Z,3.20
2019-01-09T00:47:02.797Z,3.30
2019-01-09T00:49:31.051Z,3.20
2019-01-09T00:51:59.025Z,3.30
2019-01-09T00:54:45.994Z,3.30
2019-01-09T00:57:13.449Z,3.30
2019-01-09T00:59:40.893Z,3.10
2019-01-09T01:02:25.558Z,3.00
2019-01-09T01:05:09.124Z,2.80
2019-01-09T01:08:14.436Z,2.90
2019-01-09T01:11:27.859Z,3.00
2019-01-09T01:14:24.287Z,2.90
2019-01-09T01:17:48.313Z,2.80
2019-01-09T01:20:47.841Z,2.80
2019-01-09T01:23:51.994Z,2.70
2019-01-09T01:26:43.065Z,2.70
2019-01-09T01:29:50.650Z,2.60
2019-01-09T01:32:53.462Z,2.60
2019-01-09T01:36:00.568Z,2.70
2019-01-09T01:39:15.854Z,2.70
2019-01-09T01:42:00.282Z,2.70
2019-01-09T01:44:57.198Z,2.70
2019-01-09T01:47:49.034Z,2.70
2019-01-09T01:50:54.025Z,2.70
2019-01-09T01:53:30.610Z,2.70
2019-01-09T01:56:32.631Z,2.60
2019-01-09T01:59:32.914Z,2.70
2019-01-09T02:02:48.220Z,2.80
2019-01-09T02:06:03.656Z,2.90
2019-01-09T02:09:04.882Z,2.90
2019-01-09T02:12:02.374Z,3.00
2019-01-09T02:14:56.222Z,2.90
2019-01-09T02:17:55.317Z,2.90
2019-01-09T02:20:43.950Z,2.90
2019-01-09T02:23:18.590Z,2.70
2019-01-09T02:26:13.449Z,2.70
2019-01-09T02:29:03.761Z,2.60
2019-01-09T02:32:03.755Z,2.70
2019-01-09T02:34:31.155Z,2.70
2019-01-09T02:36:58.562Z,2.70
2019-01-09T02:39:26.233Z,2.80
2019-01-09T02:41:53.642Z,2.90
2019-01-09T02:44:21.036Z,2.80
2019-01-09T02:46:48.470Z,2.80
2019-01-09T02:49:15.847Z,2.80
2019-01-09T02:51:43.242Z,2.70
2019-01-09T02:54:10.748Z,2.60
2019-01-09T02:56:38.472Z,2.50
2019-01-09T02:59:06.363Z,2.50
2019-01-09T03:01:33.801Z,2.40
2019-01-09T03:04:01.208Z,2.50
2019-01-09T03:06:28.602Z,2.60
2019-01-09T03:08:56.036Z,2.50
2019-01-09T03:11:23.430Z,2.20
2019-01-09T03:13:50.829Z,2.30
2019-01-09T03:16:18.264Z,2.40
2019-01-09T03:18:45.658Z,2.30
2019-01-09T03:21:13.046Z,2.30
2019-01-09T03:23:40.522Z,2.40
2019-01-09T03:26:07.910Z,2.30
2019-01-09T03:28:35.318Z,2.30
2019-01-09T03:31:03.143Z,2.20
2019-01-09T03:33:30.535Z,2.20
2019-01-09T03:35:57.935Z,2.20
2019-01-09T03:38:25.378Z,2.20
2019-01-09T03:40:52.766Z,2.20
2019-01-09T03:43:20.182Z,2.20
2019-01-09T03:45:47.585Z,2.20
2019-01-09T03:48:14.998Z,2.20
2019-01-09T03:50:42.385Z,2.30
2019-01-09T03:53:09.817Z,2.30
2019-01-09T03:55:37.291Z,2.30
2019-01-09T03:58:05.153Z,2.30
2019-01-09T04:00:32.577Z,2.30
2019-01-09T04:02:59.977Z,2.30
2019-01-09T04:05:27.359Z,2.30
2019-01-09T04:07:54.868Z,2.40
2019-01-09T04:10:22.256Z,2.40
2019-01-09T04:12:49.646Z,2.50
2019-01-09T04:15:17.159Z,2.50
2019-01-09T04:17:44.543Z,2.40
2019-01-09T04:20:11.923Z,2.40
2019-01-09T04:22:39.361Z,2.50
2019-01-09T04:25:06.779Z,2.40
2019-01-09T04:27:34.073Z,2.40
2019-01-09T04:30:01.567Z,2.40
2019-01-09T04:32:28.954Z,2.40
2019-01-09T04:34:56.352Z,2.40
2019-01-09T04:37:23.809Z,2.40
2019-01-09T04:39:51.201Z,2.40
2019-01-09T04:42:18.598Z,2.40
2019-01-09T04:44:46.091Z,2.50
2019-01-09T04:47:13.433Z,2.50
2019-01-09T04:49:40.809Z,2.40
2019-01-09T04:52:08.266Z,2.40
2019-01-09T04:54:35.657Z,2.50
2019-01-09T04:57:03.162Z,2.40
2019-01-09T04:59:30.902Z,2.50
2019-01-09T05:01:58.290Z,2.40
2019-01-09T05:04:25.695Z,2.30
2019-01-09T05:07:00.553Z,2.20
2019-01-09T05:09:22.355Z,2.20
2019-01-09T05:11:49.750Z,2.10
2019-01-09T05:14:17.578Z,1.90
2019-01-09T05:16:44.989Z,1.60
2019-01-09T05:19:12.386Z,1.50
2019-01-09T05:21:39.824Z,1.40
2019-01-09T05:24:07.217Z,1.50
2019-01-09T05:26:34.627Z,1.40
2019-01-09T05:29:02.069Z,1.40
2019-01-09T05:31:29.482Z,1.30
2019-01-09T05:33:56.884Z,1.40
2019-01-09T05:36:24.312Z,1.30
2019-01-09T05:38:51.729Z,1.30
2019-01-09T05:41:19.129Z,1.40
2019-01-09T05:43:46.670Z,1.50
2019-01-09T05:46:14.091Z,1.40
2019-01-09T05:48:41.483Z,1.40
2019-01-09T05:51:09.002Z,1.50
2019-01-09T05:53:36.421Z,1.60
2019-01-09T05:56:03.977Z,1.60
2019-01-09T05:58:31.555Z,1.60
2019-01-09T06:00:58.940Z,1.70
2019-01-09T06:03:26.342Z,1.70
2019-01-09T06:05:53.881Z,1.70
2019-01-09T06:08:21.299Z,1.60
2019-01-09T06:10:48.702Z,1.60
2019-01-09T06:13:16.166Z,1.70
2019-01-09T06:15:43.570Z,1.70
2019-01-09T06:18:10.981Z,1.70
2019-01-09T06:20:57.951Z,1.70
2019-01-09T06:23:25.478Z,1.60
2019-01-09T06:25:52.878Z,1.70
2019-01-09T06:28:20.329Z,1.70
2019-01-09T06:30:47.726Z,1.70
2019-01-09T06:33:15.151Z,1.70
2019-01-09T06:35:42.591Z,1.70
2019-01-09T06:38:09.996Z,1.70
2019-01-09T06:40:37.385Z,1.70
2019-01-09T06:43:04.831Z,1.70
2019-01-09T06:45:32.230Z,1.60
2019-01-09T06:47:59.607Z,1.60
2019-01-09T06:50:27.065Z,1.70
2019-01-09T06:52:54.474Z,1.70
2019-01-09T06:55:21.905Z,1.70
2019-01-09T06:57:49.350Z,1.60
2019-01-09T07:00:16.969Z,1.70
2019-01-09T07:02:44.345Z,1.60
2019-01-09T07:05:11.897Z,1.70
2019-01-09T07:07:39.334Z,1.70
2019-01-09T07:10:06.763Z,1.70
2019-01-09T07:12:34.244Z,1.70
2019-01-09T07:15:01.694Z,1.60
2019-01-09T07:17:29.129Z,1.60
2019-01-09T07:19:56.870Z,1.60
2019-01-09T07:22:24.555Z,1.50
2019-01-09T07:24:52.560Z,1.50
2019-01-09T07:27:20.047Z,1.60
2019-01-09T07:29:47.454Z,1.60
2019-01-09T07:32:14.865Z,1.50
2019-01-09T07:34:42.294Z,1.50
2019-01-09T07:37:09.709Z,1.50
2019-01-09T07:39:37.102Z,1.50
2019-01-09T07:42:04.614Z,1.50
2019-01-09T07:44:32.025Z,1.60
2019-01-09T07:46:59.425Z,1.60
2019-01-09T07:49:26.878Z,1.60
2019-01-09T07:51:54.273Z,1.60
2019-01-09T07:54:21.686Z,1.60
2019-01-09T07:56:49.209Z,1.60
2019-01-09T08:13:09.801Z,1.60
2019-01-09T08:15:37.209Z,2.00
2019-01-09T08:18:04.620Z,1.90
2019-01-09T08:20:32.069Z,2.00
2019-01-09T08:22:59.470Z,2.00
2019-01-09T08:25:26.902Z,2.00
2019-01-09T08:27:54.535Z,1.90
2019-01-09T08:30:21.941Z,2.10
2019-01-09T08:32:49.391Z,2.10
2019-01-09T08:35:17.113Z,2.10
2019-01-09T08:37:46.346Z,2.10
2019-01-09T08:40:13.753Z,2.00
2019-01-09T08:42:41.254Z,2.20
2019-01-09T08:45:08.683Z,2.30
2019-01-09T08:47:36.118Z,2.40
2019-01-09T08:50:04.772Z,2.40
2019-01-09T08:52:33.782Z,2.50
2019-01-09T08:55:01.216Z,2.50
2019-01-09T08:57:28.627Z,2.60
2019-01-09T08:59:56.022Z,2.40
2019-01-09T09:02:23.440Z,2.30
2019-01-09T09:04:51.090Z,2.30
2019-01-09T09:07:19.822Z,2.30
2019-01-09T09:09:47.244Z,2.30
2019-01-09T09:12:14.815Z,2.20
2019-01-09T09:14:43.810Z,2.30
2019-01-09T09:17:13.959Z,2.20
2019-01-09T09:19:42.729Z,2.30
2019-01-09T09:22:10.236Z,2.40
2019-01-09T09:24:37.643Z,2.40
2019-01-09T09:27:07.242Z,2.50
2019-01-09T09:29:34.649Z,2.50
2019-01-09T09:32:02.057Z,2.60
2019-01-09T09:34:29.524Z,2.70
2019-01-09T09:36:56.932Z,2.70
2019-01-09T09:39:24.337Z,2.70
2019-01-09T09:41:53.589Z,2.60
2019-01-09T09:44:20.998Z,2.30
2019-01-09T09:46:48.427Z,2.30
2019-01-09T09:49:17.031Z,2.20
2019-01-09T09:51:44.553Z,2.00
2019-01-09T09:54:11.965Z,1.70
2019-01-09T09:56:39.753Z,1.60
2019-01-09T09:59:07.163Z,1.50
2019-01-09T10:01:34.614Z,1.40
2019-01-09T10:04:02.233Z,1.30
2019-01-09T10:06:30.101Z,1.10
2019-01-09T10:08:57.525Z,1.20
2019-01-09T10:11:24.952Z,1.00
2019-01-09T10:13:52.510Z,1.10
2019-01-09T10:16:20.532Z,1.10
2019-01-09T10:18:47.878Z,1.00
2019-01-09T10:21:15.292Z,1.20
2019-01-09T10:23:42.710Z,1.30
2019-01-09T10:26:10.198Z,1.50
2019-01-09T10:28:37.622Z,1.60
2019-01-09T10:31:05.059Z,1.60
2019-01-09T10:33:34.308Z,1.70
2019-01-09T10:36:01.800Z,1.70
2019-01-09T10:38:37.744Z,1.80
2019-01-09T10:40:58.566Z,1.70
2019-01-09T10:43:25.980Z,1.80
2019-01-09T10:45:53.400Z,1.80
2019-01-09T10:48:20.971Z,1.80
2019-01-09T10:50:48.408Z,1.80
2019-01-09T10:53:17.434Z,1.70
2019-01-09T10:55:45.095Z,1.70
2019-01-09T10:58:14.196Z,1.70
2019-01-09T11:00:41.627Z,1.80
2019-01-09T11:03:09.345Z,1.90
2019-01-09T11:05:36.758Z,1.90
2019-01-09T11:08:04.182Z,1.90
2019-01-09T11:10:32.081Z,1.90
2019-01-09T11:13:00.111Z,2.00
2019-01-09T11:15:29.444Z,2.00
2019-01-09T11:17:57.064Z,2.00
2019-01-09T11:20:24.479Z,1.90
2019-01-09T11:22:51.903Z,1.80
2019-01-09T11:25:21.889Z,1.80
2019-01-09T11:27:49.425Z,1.80
2019-01-09T11:30:17.149Z,1.90
2019-01-09T11:32:44.615Z,1.80
2019-01-09T11:35:13.505Z,1.80
2019-01-09T11:37:40.932Z,1.60
2019-01-09T11:40:09.702Z,1.50
2019-01-09T11:42:37.089Z,1.60
2019-01-09T11:45:06.181Z,1.50
2019-01-09T11:47:33.612Z,1.50
2019-01-09T11:50:01.056Z,1.40
2019-01-09T11:52:28.467Z,1.40
2019-01-09T11:54:56.152Z,1.40
2019-01-09T11:57:26.652Z,1.50
2019-01-09T11:59:54.070Z,1.50
2019-01-09T12:02:22.491Z,1.60
2019-01-09T12:04:50.031Z,1.70
2019-01-09T12:07:17.437Z,1.60
2019-01-09T12:09:45.025Z,1.60
2019-01-09T12:12:12.515Z,1.60
2019-01-09T12:14:40.135Z,1.50
2019-01-09T12:17:27.062Z,1.50
2019-01-09T12:19:54.850Z,1.50
2019-01-09T12:22:22.270Z,1.60
2019-01-09T12:24:49.790Z,1.70
2019-01-09T12:27:17.197Z,1.60
2019-01-09T12:29:44.614Z,1.70
2019-01-09T12:32:12.080Z,1.80
2019-01-09T12:34:39.540Z,1.70
2019-01-09T12:37:06.942Z,1.60
2019-01-09T12:39:34.411Z,1.50
2019-01-09T12:42:01.812Z,1.50
2019-01-09T12:44:29.270Z,1.60
2019-01-09T12:46:56.831Z,1.70
2019-01-09T12:49:24.244Z,1.60
2019-01-09T12:51:51.710Z,1.50
2019-01-09T12:54:19.256Z,1.40
2019-01-09T12:56:46.663Z,1.30
2019-01-09T12:59:21.726Z,1.50
2019-01-09T13:01:43.366Z,1.50
2019-01-09T13:04:12.710Z,1.40
2019-01-09T13:06:40.707Z,1.40
2019-01-09T13:09:09.946Z,1.50
2019-01-09T13:11:37.497Z,1.40
2019-01-09T13:14:05.414Z,1.50
2019-01-09T13:16:33.209Z,1.50
2019-01-09T13:19:00.806Z,1.60
2019-01-09T13:21:28.977Z,1.60
2019-01-09T13:23:56.641Z,1.60
2019-01-09T13:26:24.055Z,1.60
2019-01-09T13:28:53.550Z,1.60
2019-01-09T13:31:23.033Z,1.60
2019-01-09T13:33:50.468Z,1.50
2019-01-09T13:36:17.903Z,1.50
2019-01-09T13:38:45.391Z,1.50
2019-01-09T13:41:12.810Z,1.40
2019-01-09T13:43:40.240Z,1.40
2019-01-09T13:46:07.681Z,1.40
2019-01-09T13:48:35.092Z,1.40
2019-01-09T13:51:04.439Z,1.40
2019-01-09T13:53:31.911Z,1.40
2019-01-09T13:55:59.324Z,1.50
2019-01-09T13:58:28.724Z,1.50
2019-01-09T14:00:56.180Z,1.40
2019-01-09T14:03:25.520Z,1.40
2019-01-09T14:05:52.820Z,1.30
2019-01-09T14:08:20.287Z,1.20
2019-01-09T14:10:47.752Z,0.90
2019-01-09T14:13:16.964Z,0.80
2019-01-09T14:15:44.416Z,0.70
2019-01-09T14:18:12.276Z,0.70
2019-01-09T14:20:41.515Z,0.70
2019-01-09T14:23:09.981Z,0.80
2019-01-09T14:25:37.404Z,0.70
2019-01-09T14:28:05.276Z,0.70
2019-01-09T14:30:32.745Z,0.90
2019-01-09T14:33:00.143Z,0.90
2019-01-09T14:35:27.586Z,0.90
2019-01-09T14:37:55.572Z,0.90
2019-01-09T14:40:22.976Z,0.90
2019-01-09T14:42:50.400Z,1.00
2019-01-09T14:45:18.115Z,1.00
2019-01-09T14:47:45.586Z,1.00
2019-01-09T14:50:15.732Z,1.00
2019-01-09T14:52:43.275Z,1.00
2019-01-09T14:55:12.231Z,0.90
2019-01-09T14:57:44.270Z,1.00
2019-01-09T15:00:15.247Z,1.00
2019-01-09T15:02:44.033Z,1.00
2019-01-09T15:05:11.457Z,1.00
2019-01-09T15:07:39.159Z,1.00
2019-01-09T15:10:10.396Z,1.00
2019-01-09T15:12:37.844Z,1.00
2019-01-09T15:15:07.183Z,1.00
2019-01-09T15:17:34.604Z,0.90
2019-01-09T15:20:03.491Z,1.00
2019-01-09T15:22:30.992Z,0.90
2019-01-09T15:24:58.398Z,1.00
2019-01-09T15:27:26.766Z,1.00
2019-01-09T15:29:54.246Z,1.00
2019-01-09T15:32:21.660Z,1.00
2019-01-09T15:34:49.086Z,1.00
2019-01-09T15:37:19.929Z,1.00
2019-01-09T15:39:47.319Z,1.10
2019-01-09T15:42:14.756Z,1.00
2019-01-09T15:44:42.274Z,0.90
2019-01-09T15:47:09.711Z,1.00
2019-01-09T15:49:37.133Z,0.90
2019-01-09T15:52:04.733Z,0.90
2019-01-09T15:54:32.143Z,0.80
2019-01-09T15:56:59.564Z,0.70
2019-01-09T15:59:27.163Z,0.80
2019-01-09T16:01:54.579Z,0.80
2019-01-09T16:04:22.001Z,0.80
2019-01-09T16:06:51.281Z,0.70
2019-01-09T16:09:19.656Z,0.70
2019-01-09T16:11:47.460Z,0.80
2019-01-09T16:14:17.387Z,0.70
2019-01-09T16:16:45.188Z,0.70
2019-01-09T16:19:13.375Z,0.70
2019-01-09T16:21:40.697Z,0.70
2019-01-09T16:24:08.106Z,0.60
2019-01-09T16:26:36.323Z,0.70
2019-01-09T16:29:05.640Z,0.60
2019-01-09T16:31:35.608Z,0.70
2019-01-09T16:34:03.867Z,0.70
2019-01-09T16:36:32.578Z,0.70
2019-01-09T16:39:00.411Z,0.70
2019-01-09T16:41:28.143Z,0.70
2019-01-09T16:43:55.542Z,0.70
2019-01-09T16:46:22.935Z,0.80
2019-01-09T16:48:50.482Z,0.80
2019-01-09T16:51:17.883Z,0.80
2019-01-09T16:53:45.281Z,0.80
2019-01-09T16:56:12.856Z,0.80
2019-01-09T16:58:40.290Z,0.80
2019-01-09T17:01:07.700Z,0.90
2019-01-09T17:03:35.715Z,0.90
2019-01-09T17:06:03.926Z,0.90
2019-01-09T17:08:31.420Z,0.90
2019-01-09T17:10:58.875Z,0.90
2019-01-09T17:13:26.271Z,0.90
2019-01-09T17:15:53.681Z,0.90
2019-01-09T17:18:21.977Z,0.90
2019-01-09T17:20:49.735Z,0.90
2019-01-09T17:23:17.148Z,0.80
2019-01-09T17:25:44.723Z,0.80
2019-01-09T17:28:12.436Z,0.70
2019-01-09T17:30:39.852Z,0.70
2019-01-09T17:33:07.501Z,0.60
2019-01-09T17:35:35.012Z,0.60
2019-01-09T17:38:02.440Z,0.60
2019-01-09T17:40:29.886Z,0.70
2019-01-09T17:42:57.283Z,0.60
2019-01-09T17:45:24.687Z,0.70
2019-01-09T17:47:52.148Z,0.60
2019-01-09T17:50:28.757Z,0.60
2019-01-09T17:52:58.188Z,0.60
2019-01-09T17:55:25.743Z,0.60
2019-01-09T17:57:53.588Z,0.60
2019-01-09T18:00:24.015Z,0.60
2019-01-09T18:02:51.427Z,0.70
2019-01-09T18:05:20.035Z,0.70
2019-01-09T18:07:47.666Z,0.60
2019-01-09T18:10:17.542Z,0.70
2019-01-09T18:12:45.422Z,0.50
2019-01-09T18:15:16.353Z,0.50
2019-01-09T18:17:43.889Z,0.50
2019-01-09T18:20:12.982Z,0.40
2019-01-09T18:22:40.852Z,0.50
2019-01-09T18:25:12.652Z,0.50
2019-01-09T18:27:39.991Z,0.50
2019-01-09T18:30:11.732Z,0.50
2019-01-09T18:33:15.852Z,0.40
2019-01-09T18:36:19.462Z,0.50
2019-01-09T18:39:22.932Z,0.40
2019-01-09T18:42:16.856Z,0.50
2019-01-09T18:45:04.886Z,0.50
2019-01-09T18:48:35.836Z,0.40
2019-01-09T18:51:16.436Z,0.40
2019-01-09T18:53:47.912Z,0.20
2019-01-09T18:56:15.338Z,0.40
2019-01-09T18:58:42.756Z,0.40
2019-01-09T19:01:10.793Z,0.50
2019-01-09T19:03:38.527Z,0.50
2019-01-09T19:06:06.222Z,0.50
2019-01-09T19:08:33.886Z,0.50
2019-01-09T19:11:07.659Z,0.50
2019-01-09T19:13:30.652Z,0.50
2019-01-09T19:15:58.326Z,0.50
2019-01-09T19:18:25.737Z,0.50
2019-01-09T19:20:53.389Z,0.50
2019-01-09T19:23:21.295Z,0.50
2019-01-09T19:25:48.807Z,0.50
2019-01-09T19:28:16.417Z,0.40
2019-01-09T19:30:44.275Z,0.50
2019-01-09T19:33:11.906Z,0.40
2019-01-09T19:35:39.959Z,0.50
2019-01-09T19:38:08.286Z,0.50
2019-01-09T19:40:36.049Z,0.40
2019-01-09T19:43:03.997Z,0.50
2019-01-09T19:45:31.670Z,0.40
2019-01-09T19:47:59.289Z,0.40
2019-01-09T19:50:26.945Z,0.50
2019-01-09T19:52:54.488Z,0.50
2019-01-09T19:55:23.253Z,0.40
2019-01-09T19:57:51.241Z,0.40
2019-01-09T20:00:24.858Z,0.50
2019-01-09T20:02:53.633Z,0.40
2019-01-09T20:05:23.848Z,0.50
2019-01-09T20:07:53.366Z,0.40
2019-01-09T20:10:26.252Z,0.50
2019-01-09T20:12:54.706Z,0.50
2019-01-09T20:15:23.241Z,0.40
2019-01-09T20:17:50.989Z,0.40
2019-01-09T20:20:19.432Z,0.40
2019-01-09T20:22:49.745Z,0.40
2019-01-09T20:25:17.602Z,0.40
2019-01-09T20:27:45.806Z,0.40
2019-01-09T20:30:19.485Z,0.50
2019-01-09T20:32:47.357Z,0.30
2019-01-09T20:35:16.224Z,0.30
2019-01-09T20:37:44.544Z,0.20
2019-01-09T20:40:13.814Z,0.30
2019-01-09T20:42:41.842Z,0.40
2019-01-09T20:45:11.222Z,0.40
2019-01-09T20:47:39.294Z,0.40
2019-01-09T20:50:10.827Z,0.40
2019-01-09T20:52:38.840Z,0.40
2019-01-09T20:55:07.990Z,0.30
2019-01-09T20:57:35.870Z,0.30
2019-01-09T21:00:06.847Z,0.40
2019-01-09T21:02:35.498Z,0.40
2019-01-09T21:05:06.557Z,0.50
2019-01-09T21:07:34.725Z,0.40
2019-01-09T21:10:02.371Z,0.40
2019-01-09T21:12:30.266Z,0.40
2019-01-09T21:14:58.866Z,0.40
2019-01-09T21:17:26.829Z,0.40
2019-01-09T21:19:54.821Z,0.40
2019-01-09T21:22:24.007Z,0.40
2019-01-09T21:24:52.209Z,0.40
2019-01-09T21:27:20.052Z,0.30
2019-01-09T21:29:48.051Z,0.40
2019-01-09T21:32:15.446Z,0.30
2019-01-09T21:34:42.847Z,0.40
2019-01-09T21:37:10.402Z,0.30
2019-01-09T21:39:37.954Z,0.40
2019-01-09T21:42:05.452Z,0.30
2019-01-09T21:44:33.095Z,0.40
2019-01-09T21:47:00.508Z,0.40
2019-01-09T21:49:27.908Z,0.40
2019-01-09T21:51:56.605Z,0.40
2019-01-09T21:54:25.807Z,0.50
2019-01-09T21:56:53.235Z,0.40
2019-01-09T21:59:20.689Z,0.40
2019-01-09T22:01:48.111Z,0.40
2019-01-09T22:04:15.514Z,0.40
2019-01-09T22:06:42.991Z,0.40
2019-01-09T22:09:11.701Z,0.40
2019-01-09T22:11:39.103Z,0.30
2019-01-09T22:14:07.054Z,0.30
2019-01-09T22:16:34.625Z,0.40
2019-01-09T22:19:11.907Z,0.40
2019-01-09T22:21:33.412Z,0.30
2019-01-09T22:24:00.838Z,0.40
2019-01-09T22:26:30.201Z,0.40
2019-01-09T22:28:57.901Z,0.50
2019-01-09T22:31:25.304Z,0.30
2019-01-09T22:33:52.721Z,0.40
2019-01-09T22:36:20.452Z,0.40
2019-01-09T22:38:47.862Z,0.30
2019-01-09T22:41:15.262Z,0.40
2019-01-09T22:43:42.701Z,0.40
2019-01-09T22:46:11.108Z,0.40
2019-01-09T22:48:38.732Z,0.30
2019-01-09T22:51:06.353Z,0.30
2019-01-09T22:53:33.780Z,0.20
2019-01-09T22:56:02.519Z,0.30
2019-01-09T22:58:30.155Z,0.30
2019-01-09T23:01:21.102Z,0.30
2019-01-09T23:03:50.249Z,0.20
2019-01-09T23:06:17.662Z,0.40
2019-01-09T23:08:45.058Z,0.30
2019-01-09T23:11:13.653Z,0.40
2019-01-09T23:13:41.359Z,0.40
2019-01-09T23:16:08.972Z,0.30
2019-01-09T23:18:36.412Z,0.40
2019-01-09T23:21:04.347Z,0.40
2019-01-09T23:23:32.260Z,0.40
2019-01-09T23:25:59.972Z,0.30
2019-01-09T23:28:28.254Z,0.30
2019-01-09T23:30:55.645Z,0.40
2019-01-09T23:33:23.119Z,0.30
2019-01-09T23:35:50.519Z,0.40
2019-01-09T23:38:17.945Z,0.40
2019-01-09T23:40:45.389Z,0.40
2019-01-09T23:43:12.789Z,0.50
2019-01-09T23:45:40.511Z,0.40
2019-01-09T23:48:08.259Z,0.40
2019-01-09T23:50:35.841Z,0.50
2019-01-09T23:53:03.253Z,0.50
2019-01-09T23:55:30.731Z,0.50
2019-01-09T23:57:58.141Z,0.40
